createdAt,value
2022-08-10T00:01:52.671Z,99978.80
2022-08-10T00:04:23.339Z,99973.20
2022-08-10T00:06:54.457Z,99974.40
2022-08-10T00:09:24.342Z,99971.60
2022-08-10T00:11:52.035Z,99969.60
2022-08-10T00:14:20.261Z,99971.00
2022-08-10T00:16:48.112Z,99971.60
2022-08-10T00:19:16.700Z,99974.20
2022-08-10T00:21:46.975Z,99971.20
2022-08-10T00:24:16.193Z,99974.00
2022-08-10T00:27:59.020Z,99974.80
2022-08-10T00:29:31.767Z,99974.60
2022-08-10T00:31:59.849Z,99976.60
2022-08-10T00:34:30.704Z,99980.20
2022-08-10T00:37:00.177Z,99980.60
2022-08-10T00:39:29.549Z,99978.60
2022-08-10T00:42:02.358Z,99978.60
2022-08-10T00:44:49.883Z,99978.80
2022-08-10T00:47:37.322Z,99984.80
2022-08-10T00:50:07.490Z,99982.60
2022-08-10T00:52:38.459Z,99978.80
2022-08-10T00:55:06.771Z,99980.80
2022-08-10T00:57:35.708Z,99973.20
2022-08-10T01:00:07.236Z,99979.40
2022-08-10T01:02:35.510Z,99973.20
2022-08-10T01:05:09.373Z,99972.00
2022-08-10T01:08:24.920Z,99972.60
2022-08-10T01:12:34.271Z,99971.20
2022-08-10T01:14:21.422Z,99970.20
2022-08-10T01:17:00.639Z,99972.60
2022-08-10T01:20:30.244Z,99972.80
2022-08-10T01:23:48.208Z,99964.80
2022-08-10T01:27:06.438Z,99966.40
2022-08-10T01:30:01.215Z,99966.20
2022-08-10T01:32:56.564Z,99964.80
2022-08-10T01:35:36.415Z,99966.80
2022-08-10T01:38:14.424Z,99969.40
2022-08-10T01:40:51.787Z,99963.60
2022-08-10T01:43:21.426Z,99967.40
2022-08-10T01:45:57.908Z,99967.20
2022-08-10T01:48:34.471Z,99967.80
2022-08-10T01:51:13.887Z,99967.80
2022-08-10T01:53:58.777Z,99977.80
2022-08-10T01:56:32.004Z,99974.20
2022-08-10T01:59:14.252Z,99977.80
2022-08-10T02:01:49.139Z,99977.20
2022-08-10T02:04:20.144Z,99970.40
2022-08-10T02:06:52.777Z,99973.60
2022-08-10T02:09:26.182Z,99971.40
2022-08-10T02:12:07.849Z,99976.00
2022-08-10T02:14:46.868Z,99972.60
2022-08-10T02:17:59.460Z,99971.20
2022-08-10T02:20:11.526Z,99972.60
2022-08-10T02:22:41.536Z,99971.20
2022-08-10T02:25:39.717Z,99969.80
2022-08-10T02:28:03.152Z,99969.40
2022-08-10T02:30:32.819Z,99969.60
2022-08-10T02:33:02.707Z,99973.80
2022-08-10T02:35:33.530Z,99973.00
2022-08-10T02:38:58.794Z,99969.80
2022-08-10T02:42:17.991Z,99976.20
2022-08-10T02:45:18.216Z,99975.00
2022-08-10T02:48:03.231Z,99980.40
2022-08-10T02:50:41.309Z,99981.60
2022-08-10T02:53:54.724Z,99979.40
2022-08-10T02:56:51.522Z,99979.20
2022-08-10T02:59:42.193Z,99980.20
2022-08-10T03:02:19.976Z,99977.80
2022-08-10T03:04:55.855Z,99982.00
2022-08-10T03:07:43.127Z,99979.40
2022-08-10T03:10:19.386Z,99983.00
2022-08-10T03:12:57.620Z,99985.40
2022-08-10T03:15:29.482Z,99987.40
2022-08-10T03:17:59.183Z,99984.80
2022-08-10T03:20:39.603Z,99987.00
2022-08-10T03:23:16.359Z,99989.20
2022-08-10T03:25:54.359Z,99987.00
2022-08-10T03:28:28.107Z,99982.80
2022-08-10T03:30:59.280Z,99987.80
2022-08-10T03:33:33.641Z,99987.20
2022-08-10T03:36:43.364Z,99981.60
2022-08-10T03:38:51.860Z,99985.00
2022-08-10T03:41:30.153Z,99986.60
2022-08-10T03:44:06.871Z,99986.80
2022-08-10T03:46:41.032Z,99985.20
2022-08-10T03:49:11.381Z,99988.40
2022-08-10T03:51:39.855Z,99985.40
2022-08-10T03:54:08.688Z,99989.80
2022-08-10T03:56:40.468Z,99991.80
2022-08-10T03:59:14.867Z,99994.60
2022-08-10T04:02:46.580Z,99991.60
2022-08-10T04:04:34.001Z,99991.60
2022-08-10T04:07:04.232Z,99986.00
2022-08-10T04:09:54.068Z,99990.60
2022-08-10T04:12:24.716Z,99996.00
2022-08-10T04:14:53.507Z,99995.20
2022-08-10T04:18:03.133Z,99998.00
2022-08-10T04:20:19.480Z,100001.20
2022-08-10T04:22:52.493Z,100000.40
2022-08-10T04:25:22.646Z,100002.60
2022-08-10T04:27:52.455Z,100001.00
2022-08-10T04:30:21.064Z,99999.60
2022-08-10T04:32:54.345Z,100001.60
2022-08-10T04:35:24.745Z,100008.40
2022-08-10T04:37:55.830Z,100007.40
2022-08-10T04:40:30.327Z,100003.60
2022-08-10T04:43:12.485Z,100010.60
2022-08-10T04:45:49.682Z,100013.20
2022-08-10T04:48:42.173Z,100018.40
2022-08-10T04:51:19.249Z,100015.20
2022-08-10T04:54:03.845Z,100017.60
2022-08-10T04:56:37.404Z,100018.60
2022-08-10T04:59:11.018Z,100015.80
2022-08-10T05:02:21.590Z,100019.80
2022-08-10T05:04:36.023Z,100019.40
2022-08-10T05:07:16.816Z,100023.40
2022-08-10T05:10:04.570Z,100023.60
2022-08-10T05:12:38.788Z,100024.60
2022-08-10T05:15:15.373Z,100026.60
2022-08-10T05:18:08.669Z,100028.40
2022-08-10T05:20:31.922Z,100024.20
2022-08-10T05:22:59.538Z,100029.40
2022-08-10T05:25:27.144Z,100033.20
2022-08-10T05:27:57.557Z,100031.00
2022-08-10T05:30:25.522Z,100033.20
2022-08-10T05:32:55.446Z,100029.20
2022-08-10T05:35:56.900Z,100028.40
2022-08-10T05:38:20.337Z,100030.80
2022-08-10T05:40:49.597Z,100024.80
2022-08-10T05:43:20.151Z,100026.60
2022-08-10T05:46:18.841Z,100034.80
2022-08-10T05:48:59.360Z,100032.60
2022-08-10T05:51:30.604Z,100031.40
2022-08-10T05:54:05.750Z,100032.40
2022-08-10T05:56:54.301Z,100035.00
2022-08-10T06:00:31.133Z,100038.20
2022-08-10T06:02:36.335Z,100039.80
2022-08-10T06:05:11.393Z,100042.60
2022-08-10T06:08:11.713Z,100046.00
2022-08-10T06:12:23.483Z,100044.20
2022-08-10T06:14:12.593Z,100044.20
2022-08-10T06:16:42.466Z,100041.40
2022-08-10T06:19:14.976Z,100042.00
2022-08-10T06:21:54.993Z,100043.80
2022-08-10T06:24:57.267Z,100045.40
2022-08-10T06:27:34.666Z,100047.20
2022-08-10T06:30:02.874Z,100044.80
2022-08-10T06:32:31.554Z,100044.40
2022-08-10T06:35:02.899Z,100049.20
2022-08-10T06:37:31.802Z,100050.20
2022-08-10T06:39:59.577Z,100049.60
2022-08-10T06:42:33.564Z,100051.60
2022-08-10T06:45:15.123Z,100050.00
2022-08-10T06:48:00.325Z,100048.60
2022-08-10T06:50:35.003Z,100042.20
2022-08-10T06:53:20.699Z,100042.40
2022-08-10T06:56:13.151Z,100040.00
2022-08-10T06:58:54.786Z,100039.60
2022-08-10T07:01:30.973Z,100027.80
2022-08-10T07:04:05.426Z,100027.80
2022-08-10T07:06:43.441Z,100029.60
2022-08-10T07:09:20.749Z,100025.40
2022-08-10T07:11:52.007Z,100028.00
2022-08-10T07:14:21.741Z,100027.20
2022-08-10T07:16:51.461Z,100027.40
2022-08-10T07:19:23.762Z,100028.60
2022-08-10T07:21:53.041Z,100029.00
2022-08-10T07:24:27.468Z,100031.40
2022-08-10T07:26:57.184Z,100027.60
2022-08-10T07:29:53.742Z,100029.00
2022-08-10T07:32:20.263Z,100027.20
2022-08-10T07:34:53.634Z,100024.40
2022-08-10T07:37:25.013Z,100028.00
2022-08-10T07:40:02.937Z,100026.20
2022-08-10T07:42:33.700Z,100025.60
2022-08-10T07:45:04.022Z,100018.60
2022-08-10T07:47:53.164Z,100023.20
2022-08-10T07:50:25.971Z,100022.20
2022-08-10T07:53:00.208Z,100021.80
2022-08-10T07:56:05.458Z,100028.40
2022-08-10T07:58:21.572Z,100022.80
2022-08-10T08:00:53.118Z,100026.60
2022-08-10T08:03:28.216Z,100029.60
2022-08-10T08:06:05.207Z,100030.80
2022-08-10T08:08:35.194Z,100028.80
2022-08-10T08:11:04.529Z,100026.80
2022-08-10T08:13:35.037Z,100034.00
2022-08-10T08:16:18.138Z,100035.20
2022-08-10T08:19:09.854Z,100032.00
2022-08-10T08:24:08.084Z,100030.20
2022-08-10T08:24:34.477Z,100025.80
2022-08-10T08:27:04.933Z,100021.00
2022-08-10T08:29:37.527Z,100025.60
2022-08-10T08:32:07.389Z,100016.20
2022-08-10T08:34:39.795Z,100018.40
2022-08-10T08:37:10.783Z,100011.60
2022-08-10T08:39:38.978Z,100010.80
2022-08-10T08:42:18.733Z,100017.40
2022-08-10T08:45:25.336Z,100011.00
2022-08-10T08:48:20.117Z,100013.20
2022-08-10T08:52:06.132Z,100014.60
2022-08-10T08:55:01.613Z,100015.20
2022-08-10T08:57:49.328Z,100011.20
2022-08-10T09:00:45.576Z,100012.00
2022-08-10T09:03:54.540Z,100011.20
2022-08-10T09:07:03.247Z,100011.60
2022-08-10T09:09:45.810Z,100015.00
2022-08-10T09:12:45.091Z,100012.40
2022-08-10T09:15:40.898Z,100013.60
2022-08-10T09:18:31.411Z,100016.60
2022-08-10T09:21:09.825Z,100015.40
2022-08-10T09:24:20.189Z,100019.40
2022-08-10T09:26:56.557Z,100017.00
2022-08-10T09:29:32.397Z,100012.00
2022-08-10T09:36:15.895Z,100013.60
2022-08-10T09:36:21.777Z,100010.80
2022-08-10T09:38:59.552Z,100012.40
2022-08-10T09:41:49.240Z,100008.20
2022-08-10T09:44:57.938Z,100007.60
2022-08-10T09:48:32.770Z,99998.80
2022-08-10T09:51:47.373Z,100001.60
2022-08-10T09:54:42.975Z,100000.40
2022-08-10T09:57:44.189Z,99999.40
2022-08-10T10:00:24.828Z,100001.20
2022-08-10T10:03:26.111Z,100004.00
2022-08-10T10:06:12.138Z,99998.20
2022-08-10T10:08:53.695Z,99997.60
2022-08-10T10:12:11.051Z,99996.60
2022-08-10T10:15:24.661Z,99992.20
2022-08-10T10:18:22.339Z,99992.80
2022-08-10T10:21:10.428Z,99987.40
2022-08-10T10:24:22.807Z,99986.00
2022-08-10T10:27:20.726Z,99975.60
2022-08-10T10:30:03.037Z,99976.80
2022-08-10T10:33:24.761Z,99973.40
2022-08-10T10:35:59.298Z,99970.00
2022-08-10T10:38:36.154Z,99968.60
2022-08-10T10:42:03.278Z,99958.20
2022-08-10T10:44:56.303Z,99958.40
2022-08-10T10:47:29.995Z,99964.40
2022-08-10T10:50:24.433Z,99966.40
2022-08-10T10:53:03.948Z,99965.60
2022-08-10T10:56:14.794Z,99963.60
2022-08-10T10:59:54.278Z,99957.40
2022-08-10T11:02:21.897Z,99956.20
2022-08-10T11:05:11.199Z,99945.00
2022-08-10T11:07:54.956Z,99936.00
2022-08-10T11:10:46.207Z,99939.60
2022-08-10T11:14:28.855Z,99931.20
2022-08-10T11:16:43.534Z,99926.00
2022-08-10T11:20:01.820Z,99925.40
2022-08-10T11:22:54.544Z,99928.20
2022-08-10T11:26:01.357Z,99934.60
2022-08-10T11:28:45.411Z,99936.00
2022-08-10T11:31:15.931Z,99935.00
2022-08-10T11:34:47.173Z,99927.40
2022-08-10T11:38:28.422Z,99925.80
2022-08-10T11:42:12.551Z,99928.00
2022-08-10T11:44:31.421Z,99927.40
2022-08-10T11:47:14.545Z,99927.00
2022-08-10T11:50:07.626Z,99924.40
2022-08-10T11:52:56.611Z,99928.20
2022-08-10T11:55:31.298Z,99926.20
2022-08-10T11:58:39.365Z,99930.60
2022-08-10T12:01:11.775Z,99927.20
2022-08-10T12:03:42.972Z,99925.80
2022-08-10T12:06:39.339Z,99917.40
2022-08-10T12:10:09.981Z,99917.00
2022-08-10T12:11:59.915Z,99915.20
2022-08-10T12:14:48.864Z,99916.80
2022-08-10T12:17:34.006Z,99916.40
2022-08-10T12:20:16.102Z,99911.60
2022-08-10T12:22:55.527Z,99916.60
2022-08-10T12:25:57.451Z,99909.80
2022-08-10T12:28:50.982Z,99905.00
2022-08-10T12:31:59.377Z,99893.40
2022-08-10T12:34:37.785Z,99895.60
2022-08-10T12:37:33.332Z,99895.40
2022-08-10T12:40:38.833Z,99895.20
2022-08-10T12:44:04.909Z,99884.80
2022-08-10T12:46:49.117Z,99884.20
2022-08-10T12:50:30.043Z,99881.80
2022-08-10T12:53:20.080Z,99874.00
2022-08-10T12:55:50.348Z,99874.80
2022-08-10T12:58:59.077Z,99870.20
2022-08-10T13:01:16.598Z,99865.20
2022-08-10T13:04:22.528Z,99865.00
2022-08-10T13:06:49.801Z,99858.20
2022-08-10T13:09:25.937Z,99854.00
2022-08-10T13:12:35.319Z,99848.00
2022-08-10T13:15:45.918Z,99847.00
2022-08-10T13:18:18.538Z,99851.40
2022-08-10T13:20:59.505Z,99848.00
2022-08-10T13:23:31.784Z,99850.20
2022-08-10T13:26:03.617Z,99851.80
2022-08-10T13:28:55.637Z,99856.20
2022-08-10T13:32:04.254Z,99851.60
2022-08-10T13:34:43.678Z,99847.60
2022-08-10T13:37:18.928Z,99844.40
2022-08-10T13:39:59.900Z,99843.60
2022-08-10T13:42:36.614Z,99842.00
2022-08-10T13:45:18.294Z,99837.00
2022-08-10T13:48:11.759Z,99829.60
2022-08-10T13:50:42.203Z,99831.60
2022-08-10T13:53:15.659Z,99829.20
2022-08-10T13:55:56.168Z,99827.80
2022-08-10T13:58:35.712Z,99817.80
2022-08-10T14:01:12.196Z,99821.40
2022-08-10T14:03:44.031Z,99823.60
2022-08-10T14:06:17.362Z,99825.40
2022-08-10T14:09:01.504Z,99827.60
2022-08-10T14:11:30.991Z,99824.80
2022-08-10T14:14:04.263Z,99824.40
2022-08-10T14:16:34.840Z,99823.00
2022-08-10T14:19:26.737Z,99822.80
2022-08-10T14:21:56.184Z,99822.00
2022-08-10T14:24:31.304Z,99816.00
2022-08-10T14:27:08.662Z,99820.00
2022-08-10T14:29:48.037Z,99821.80
2022-08-10T14:32:21.746Z,99828.00
2022-08-10T14:36:15.599Z,99831.80
2022-08-10T14:37:57.447Z,99829.40
2022-08-10T14:40:36.041Z,99827.20
2022-08-10T14:43:16.159Z,99825.40
2022-08-10T14:46:06.432Z,99821.80
2022-08-10T14:48:47.704Z,99819.40
2022-08-10T14:51:20.737Z,99816.00
2022-08-10T14:53:56.247Z,99811.40
2022-08-10T14:56:33.932Z,99812.80
2022-08-10T14:59:07.646Z,99810.20
2022-08-10T15:02:37.796Z,99808.00
2022-08-10T15:04:31.400Z,99799.20
2022-08-10T15:07:12.334Z,99799.60
2022-08-10T15:10:02.150Z,99799.60
2022-08-10T15:12:38.583Z,99797.00
2022-08-10T15:15:16.579Z,99792.60
2022-08-10T15:17:52.796Z,99793.40
2022-08-10T15:20:29.437Z,99792.20
2022-08-10T15:23:06.096Z,99797.00
2022-08-10T15:25:57.784Z,99803.00
2022-08-10T15:28:37.168Z,99797.60
2022-08-10T15:31:22.209Z,99804.00
2022-08-10T15:34:11.696Z,99801.00
2022-08-10T15:37:40.506Z,99799.00
2022-08-10T15:40:20.915Z,99799.80
2022-08-10T15:43:24.381Z,99793.60
2022-08-10T15:46:11.805Z,99794.80
2022-08-10T15:49:00.923Z,99795.40
2022-08-10T15:51:54.064Z,99796.80
2022-08-10T15:54:33.669Z,99795.00
2022-08-10T15:57:27.632Z,99792.60
2022-08-10T16:00:08.892Z,99791.00
2022-08-10T16:03:00.947Z,99792.00
2022-08-10T16:06:01.581Z,99792.80
2022-08-10T16:08:56.421Z,99794.40
2022-08-10T16:11:40.723Z,99792.00
2022-08-10T16:14:36.081Z,99791.20
2022-08-10T16:17:10.593Z,99786.80
2022-08-10T16:19:49.765Z,99786.20
2022-08-10T16:22:34.411Z,99792.20
2022-08-10T16:25:14.367Z,99778.40
2022-08-10T16:27:44.993Z,99780.80
2022-08-10T16:30:13.623Z,99783.40
2022-08-10T16:32:43.290Z,99779.60
2022-08-10T16:35:19.526Z,99782.20
2022-08-10T16:37:58.180Z,99782.80
2022-08-10T16:40:30.305Z,99786.60
2022-08-10T16:43:03.317Z,99786.60
2022-08-10T16:45:36.907Z,99785.60
2022-08-10T16:48:08.941Z,99788.80
2022-08-10T16:50:50.752Z,99783.40
2022-08-10T16:53:22.078Z,99785.00
2022-08-10T16:55:54.151Z,99784.00
2022-08-10T16:58:30.853Z,99785.00
2022-08-10T17:01:39.524Z,99784.40
2022-08-10T17:04:10.487Z,99780.20
2022-08-10T17:06:51.394Z,99781.00
2022-08-10T17:09:28.179Z,99780.60
2022-08-10T17:11:58.683Z,99774.60
2022-08-10T17:14:29.118Z,99778.40
2022-08-10T17:17:07.634Z,99777.40
2022-08-10T17:19:41.902Z,99776.20
2022-08-10T17:22:21.686Z,99775.40
2022-08-10T17:25:04.068Z,99783.60
2022-08-10T17:28:15.128Z,99784.20
2022-08-10T17:30:35.168Z,99784.60
2022-08-10T17:33:20.413Z,99787.60
2022-08-10T17:35:51.874Z,99789.80
2022-08-10T17:38:24.310Z,99789.20
2022-08-10T17:41:12.395Z,99790.40
2022-08-10T17:44:00.839Z,99790.40
2022-08-10T17:46:43.827Z,99793.00
2022-08-10T17:49:16.350Z,99791.00
2022-08-10T17:51:53.499Z,99794.80
2022-08-10T17:54:36.636Z,99796.60
2022-08-10T17:57:11.099Z,99799.40
2022-08-10T17:59:40.987Z,99812.00
2022-08-10T18:02:12.708Z,99806.20
2022-08-10T18:04:51.428Z,99809.00
2022-08-10T18:07:35.561Z,99812.60
2022-08-10T18:10:07.648Z,99817.80
2022-08-10T18:12:49.380Z,99812.40
2022-08-10T18:15:24.641Z,99814.40
2022-08-10T18:17:59.881Z,99809.00
2022-08-10T18:20:38.251Z,99822.80
2022-08-10T18:23:09.146Z,99829.00
2022-08-10T18:25:41.508Z,99829.20
2022-08-10T18:28:16.140Z,99834.20
2022-08-10T18:30:50.869Z,99828.60
2022-08-10T18:33:28.877Z,99834.40
2022-08-10T18:36:01.344Z,99838.00
2022-08-10T18:38:31.783Z,99834.40
2022-08-10T18:41:14.343Z,99831.00
2022-08-10T18:44:06.117Z,99838.60
2022-08-10T18:46:59.827Z,99842.20
2022-08-10T18:49:40.512Z,99841.40
2022-08-10T18:52:12.335Z,99844.20
2022-08-10T18:54:49.756Z,99841.00
2022-08-10T18:58:01.162Z,99842.00
2022-08-10T19:01:19.505Z,99847.00
2022-08-10T19:04:25.288Z,99842.60
2022-08-10T19:07:30.861Z,99847.20
2022-08-10T19:10:46.983Z,99846.00
2022-08-10T19:13:36.163Z,99857.00
2022-08-10T19:16:17.498Z,99860.40
2022-08-10T19:19:16.364Z,99858.60
2022-08-10T19:22:47.208Z,99859.80
2022-08-10T19:26:40.916Z,99862.80
2022-08-10T19:28:55.758Z,99856.20
2022-08-10T19:32:36.377Z,99856.00
2022-08-10T19:35:09.512Z,99859.20
2022-08-10T19:38:01.068Z,99859.80
2022-08-10T19:40:56.145Z,99860.20
2022-08-10T19:44:00.312Z,99853.20
2022-08-10T19:46:47.404Z,99855.20
2022-08-10T19:50:02.983Z,99850.20
2022-08-10T19:52:54.238Z,99844.60
2022-08-10T19:55:42.147Z,99845.60
2022-08-10T19:58:42.120Z,99842.00
2022-08-10T20:01:09.850Z,99845.60
2022-08-10T20:03:50.584Z,99845.80
2022-08-10T20:06:39.844Z,99855.00
2022-08-10T20:09:41.057Z,99859.00
2022-08-10T20:12:22.000Z,99853.60
2022-08-10T20:15:05.925Z,99851.20
2022-08-10T20:18:14.215Z,99844.80
2022-08-10T20:20:49.991Z,99856.20
2022-08-10T20:23:28.779Z,99855.20
2022-08-10T20:26:08.303Z,99847.80
2022-08-10T20:29:05.385Z,99849.80
2022-08-10T20:31:45.372Z,99848.00
2022-08-10T20:34:38.523Z,99844.80
2022-08-10T20:37:25.690Z,99842.40
2022-08-10T20:40:25.599Z,99846.60
2022-08-10T20:43:26.256Z,99849.00
2022-08-10T20:46:08.975Z,99849.80
2022-08-10T20:48:55.263Z,99852.20
2022-08-10T20:51:57.996Z,99852.60
2022-08-10T20:54:26.969Z,99844.00
2022-08-10T20:58:04.252Z,99850.40
2022-08-10T21:00:59.958Z,99848.00
2022-08-10T21:03:59.729Z,99850.20
2022-08-10T21:06:46.590Z,99855.80
2022-08-10T21:09:23.361Z,99855.80
2022-08-10T21:12:29.171Z,99857.00
2022-08-10T21:15:57.827Z,99854.20
2022-08-10T21:18:58.392Z,99853.20
2022-08-10T21:21:45.129Z,99850.60
2022-08-10T21:24:33.357Z,99853.60
2022-08-10T21:27:22.366Z,99847.60
2022-08-10T21:30:09.197Z,99845.20
2022-08-10T21:33:01.906Z,99846.60
2022-08-10T21:35:52.613Z,99850.20
2022-08-10T21:38:58.290Z,99842.80
2022-08-10T21:42:06.967Z,99839.80
2022-08-10T21:45:59.116Z,99841.00
2022-08-10T21:49:11.780Z,99843.00
2022-08-10T21:52:19.763Z,99838.40
2022-08-10T21:55:16.801Z,99836.40
2022-08-10T21:58:23.873Z,99836.60
2022-08-10T22:01:31.862Z,99830.80
2022-08-10T22:04:26.763Z,99827.20
2022-08-10T22:07:17.967Z,99824.40
2022-08-10T22:10:11.857Z,99824.00
2022-08-10T22:13:03.951Z,99823.80
2022-08-10T22:16:11.641Z,99819.80
2022-08-10T22:19:04.804Z,99818.40
2022-08-10T22:22:28.197Z,99823.20
2022-08-10T22:25:53.081Z,99822.80
2022-08-10T22:28:39.831Z,99824.00
2022-08-10T22:32:14.843Z,99822.00
2022-08-10T22:35:35.088Z,99819.60
2022-08-10T22:39:06.457Z,99817.00
2022-08-10T22:42:16.793Z,99815.20
2022-08-10T22:45:08.408Z,99814.20
2022-08-10T22:47:55.280Z,99819.00
2022-08-10T22:50:28.337Z,99812.60
2022-08-10T22:53:07.506Z,99812.20
2022-08-10T22:55:59.161Z,99810.20
2022-08-10T22:58:47.221Z,99812.40
2022-08-10T23:02:12.311Z,99807.20
2022-08-10T23:04:48.692Z,99810.40
2022-08-10T23:07:16.242Z,99805.80
2022-08-10T23:09:59.364Z,99804.00
2022-08-10T23:12:36.963Z,99806.80
2022-08-10T23:15:27.581Z,99804.00
2022-08-10T23:18:17.549Z,99811.40
2022-08-10T23:20:47.903Z,99802.20
2022-08-10T23:23:24.105Z,99805.80
2022-08-10T23:25:57.205Z,99812.60
2022-08-10T23:28:38.395Z,99804.60
2022-08-10T23:32:06.175Z,99817.20
2022-08-10T23:34:07.922Z,99809.20
2022-08-10T23:36:40.240Z,99808.60
2022-08-10T23:39:25.470Z,99809.20
2022-08-10T23:42:06.329Z,99812.40
2022-08-10T23:44:42.744Z,99804.00
2022-08-10T23:47:15.861Z,99807.60
2022-08-10T23:49:46.310Z,99805.20
2022-08-10T23:52:28.781Z,99807.80
2022-08-10T23:55:03.180Z,99803.60
2022-08-10T23:57:35.161Z,99806.20
